sensor_id;sensor_type;location;lat;lon;timestamp;temperature;humidity
12384;DHT22;6256;63.808;20.336;2024-01-15T00:02:09;-11.80;99.90
12384;DHT22;6256;63.808;20.336;2024-01-15T00:04:40;-11.70;99.90
12384;DHT22;6256;63.808;20.336;2024-01-15T00:07:06;-11.80;99.90
12384;DHT22;6256;63.808;20.336;2024-01-15T00:09:35;-11.70;99.90
12384;DHT22;6256;63.808;20.336;2024-01-15T00:12:03;-11.70;99.90
12384;DHT22;6256;63.808;20.336;2024-01-15T00:14:29;-11.60;99.90
12384;DHT22;6256;63.808;20.336;2024-01-15T00:16:54;-11.60;99.90
12384;DHT22;6256;63.808;20.336;2024-01-15T00:19:21;-11.60;99.90
12384;DHT22;6256;63.808;20.336;2024-01-15T00:21:47;-11.70;99.90
12384;DHT22;6256;63.808;20.336;2024-01-15T00:24:13;-11.60;99.90
12384;DHT22;6256;63.808;20.336;2024-01-15T00:26:39;-11.50;99.90
12384;DHT22;6256;63.808;20.336;2024-01-15T00:29:07;-11.50;99.90
12384;DHT22;6256;63.808;20.336;2024-01-15T00:31:33;-11.50;99.90
12384;DHT22;6256;63.808;20.336;2024-01-15T00:33:59;-11.50;99.90
12384;DHT22;6256;63.808;20.336;2024-01-15T00:36:25;-11.50;99.90
12384;DHT22;6256;63.808;20.336;2024-01-15T00:38:50;-11.30;99.90
12384;DHT22;6256;63.808;20.336;2024-01-15T00:41:16;-11.20;99.90
12384;DHT22;6256;63.808;20.336;2024-01-15T00:43:44;-11.20;99.90
12384;DHT22;6256;63.808;20.336;2024-01-15T00:46:11;-11.00;99.90
12384;DHT22;6256;63.808;20.336;2024-01-15T00:48:40;-11.00;99.90
12384;DHT22;6256;63.808;20.336;2024-01-15T00:51:05;-10.90;99.90
12384;DHT22;6256;63.808;20.336;2024-01-15T00:53:31;-11.00;99.90
12384;DHT22;6256;63.808;20.336;2024-01-15T00:55:57;-11.00;99.90
12384;DHT22;6256;63.808;20.336;2024-01-15T00:58:23;-11.00;99.90
12384;DHT22;6256;63.808;20.336;2024-01-15T01:00:49;-11.00;99.90
12384;DHT22;6256;63.808;20.336;2024-01-15T01:03:15;-11.00;99.90
12384;DHT22;6256;63.808;20.336;2024-01-15T01:05:41;-11.00;99.90
12384;DHT22;6256;63.808;20.336;2024-01-15T01:08:06;-11.00;99.90
12384;DHT22;6256;63.808;20.336;2024-01-15T01:10:35;-11.00;99.90
12384;DHT22;6256;63.808;20.336;2024-01-15T01:13:01;-11.00;99.90
12384;DHT22;6256;63.808;20.336;2024-01-15T01:15:26;-11.00;99.90
12384;DHT22;6256;63.808;20.336;2024-01-15T01:17:52;-11.10;99.90
12384;DHT22;6256;63.808;20.336;2024-01-15T01:20:18;-11.00;99.90
12384;DHT22;6256;63.808;20.336;2024-01-15T01:22:44;-11.00;99.90
12384;DHT22;6256;63.808;20.336;2024-01-15T01:25:10;-11.00;99.90
12384;DHT22;6256;63.808;20.336;2024-01-15T01:27:35;-11.00;99.90
12384;DHT22;6256;63.808;20.336;2024-01-15T01:30:01;-11.00;99.90
12384;DHT22;6256;63.808;20.336;2024-01-15T01:32:27;-10.90;99.90
12384;DHT22;6256;63.808;20.336;2024-01-15T01:34:53;-10.90;99.90
12384;DHT22;6256;63.808;20.336;2024-01-15T01:37:18;-10.90;99.90
12384;DHT22;6256;63.808;20.336;2024-01-15T01:39:44;-11.00;99.90
12384;DHT22;6256;63.808;20.336;2024-01-15T01:42:10;-10.90;99.90
12384;DHT22;6256;63.808;20.336;2024-01-15T01:44:40;-10.90;99.90
12384;DHT22;6256;63.808;20.336;2024-01-15T01:47:06;-10.90;99.90
12384;DHT22;6256;63.808;20.336;2024-01-15T01:49:32;-10.90;99.90
12384;DHT22;6256;63.808;20.336;2024-01-15T01:51:59;-10.90;99.90
12384;DHT22;6256;63.808;20.336;2024-01-15T01:54:28;-10.90;99.90
12384;DHT22;6256;63.808;20.336;2024-01-15T01:56:54;-10.90;99.90
12384;DHT22;6256;63.808;20.336;2024-01-15T01:59:22;-11.00;99.90
12384;DHT22;6256;63.808;20.336;2024-01-15T02:01:49;-11.00;99.90
12384;DHT22;6256;63.808;20.336;2024-01-15T02:04:16;-11.00;99.90
12384;DHT22;6256;63.808;20.336;2024-01-15T02:06:41;-11.00;99.90
12384;DHT22;6256;63.808;20.336;2024-01-15T02:09:08;-10.90;99.90
12384;DHT22;6256;63.808;20.336;2024-01-15T02:11:35;-10.90;99.90
12384;DHT22;6256;63.808;20.336;2024-01-15T02:14:01;-10.90;99.90
12384;DHT22;6256;63.808;20.336;2024-01-15T02:16:28;-10.90;99.90
12384;DHT22;6256;63.808;20.336;2024-01-15T02:18:53;-10.90;99.90
12384;DHT22;6256;63.808;20.336;2024-01-15T02:21:19;-10.90;99.90
12384;DHT22;6256;63.808;20.336;2024-01-15T02:23:45;-10.80;99.90
12384;DHT22;6256;63.808;20.336;2024-01-15T02:26:10;-10.80;99.90
12384;DHT22;6256;63.808;20.336;2024-01-15T02:28:36;-10.80;99.90
12384;DHT22;6256;63.808;20.336;2024-01-15T02:31:02;-10.80;99.90
12384;DHT22;6256;63.808;20.336;2024-01-15T02:33:28;-10.90;99.90
12384;DHT22;6256;63.808;20.336;2024-01-15T02:35:53;-10.90;99.90
12384;DHT22;6256;63.808;20.336;2024-01-15T02:38:19;-10.80;99.90
12384;DHT22;6256;63.808;20.336;2024-01-15T02:40:45;-10.80;99.90
12384;DHT22;6256;63.808;20.336;2024-01-15T02:43:11;-10.80;99.90
12384;DHT22;6256;63.808;20.336;2024-01-15T02:45:37;-10.90;99.90
12384;DHT22;6256;63.808;20.336;2024-01-15T02:48:03;-10.90;99.90
12384;DHT22;6256;63.808;20.336;2024-01-15T02:50:29;-10.90;99.90
12384;DHT22;6256;63.808;20.336;2024-01-15T02:52:55;-11.00;99.90
12384;DHT22;6256;63.808;20.336;2024-01-15T02:55:20;-10.90;99.90
12384;DHT22;6256;63.808;20.336;2024-01-15T02:57:46;-10.90;99.90
12384;DHT22;6256;63.808;20.336;2024-01-15T03:00:12;-10.90;99.90
12384;DHT22;6256;63.808;20.336;2024-01-15T03:02:39;-10.90;99.90
12384;DHT22;6256;63.808;20.336;2024-01-15T03:05:06;-10.80;99.90
12384;DHT22;6256;63.808;20.336;2024-01-15T03:07:33;-10.80;99.90
12384;DHT22;6256;63.808;20.336;2024-01-15T03:09:59;-10.80;99.90
12384;DHT22;6256;63.808;20.336;2024-01-15T03:12:24;-10.80;99.90
12384;DHT22;6256;63.808;20.336;2024-01-15T03:14:50;-10.90;99.90
12384;DHT22;6256;63.808;20.336;2024-01-15T03:17:16;-10.90;99.90
12384;DHT22;6256;63.808;20.336;2024-01-15T03:19:41;-10.90;99.90
12384;DHT22;6256;63.808;20.336;2024-01-15T03:22:07;-10.90;99.90
12384;DHT22;6256;63.808;20.336;2024-01-15T03:24:34;-10.80;99.90
12384;DHT22;6256;63.808;20.336;2024-01-15T03:27:00;-10.80;99.90
12384;DHT22;6256;63.808;20.336;2024-01-15T03:29:26;-10.80;99.90
12384;DHT22;6256;63.808;20.336;2024-01-15T03:31:52;-10.80;99.90
12384;DHT22;6256;63.808;20.336;2024-01-15T03:34:18;-10.70;99.90
12384;DHT22;6256;63.808;20.336;2024-01-15T03:36:44;-10.70;99.90
12384;DHT22;6256;63.808;20.336;2024-01-15T03:39:10;-10.70;99.90
12384;DHT22;6256;63.808;20.336;2024-01-15T03:41:35;-10.70;99.90
12384;DHT22;6256;63.808;20.336;2024-01-15T03:44:01;-10.70;99.90
12384;DHT22;6256;63.808;20.336;2024-01-15T03:46:27;-10.70;99.90
12384;DHT22;6256;63.808;20.336;2024-01-15T03:48:53;-10.60;99.90
12384;DHT22;6256;63.808;20.336;2024-01-15T03:51:19;-10.70;99.90
12384;DHT22;6256;63.808;20.336;2024-01-15T03:53:45;-10.70;99.90
12384;DHT22;6256;63.808;20.336;2024-01-15T03:56:10;-10.70;99.90
12384;DHT22;6256;63.808;20.336;2024-01-15T03:58:36;-10.70;99.90
12384;DHT22;6256;63.808;20.336;2024-01-15T04:01:02;-10.80;99.90
12384;DHT22;6256;63.808;20.336;2024-01-15T04:03:27;-10.80;99.90
12384;DHT22;6256;63.808;20.336;2024-01-15T04:05:53;-10.80;99.90
12384;DHT22;6256;63.808;20.336;2024-01-15T04:08:19;-10.80;99.90
12384;DHT22;6256;63.808;20.336;2024-01-15T04:10:44;-10.70;99.90
12384;DHT22;6256;63.808;20.336;2024-01-15T04:13:10;-10.70;99.90
12384;DHT22;6256;63.808;20.336;2024-01-15T04:15:36;-10.70;99.90
12384;DHT22;6256;63.808;20.336;2024-01-15T04:18:03;-10.70;99.90
12384;DHT22;6256;63.808;20.336;2024-01-15T04:20:28;-10.70;99.90
12384;DHT22;6256;63.808;20.336;2024-01-15T04:22:54;-10.70;99.90
12384;DHT22;6256;63.808;20.336;2024-01-15T04:25:20;-10.70;99.90
12384;DHT22;6256;63.808;20.336;2024-01-15T04:27:46;-10.70;99.90
12384;DHT22;6256;63.808;20.336;2024-01-15T04:30:12;-10.80;99.90
12384;DHT22;6256;63.808;20.336;2024-01-15T04:32:38;-10.90;99.90
12384;DHT22;6256;63.808;20.336;2024-01-15T04:35:04;-10.90;99.90
12384;DHT22;6256;63.808;20.336;2024-01-15T04:37:29;-11.00;99.90
12384;DHT22;6256;63.808;20.336;2024-01-15T04:39:55;-11.20;99.90
12384;DHT22;6256;63.808;20.336;2024-01-15T04:42:22;-11.30;99.90
12384;DHT22;6256;63.808;20.336;2024-01-15T04:44:48;-11.40;99.90
12384;DHT22;6256;63.808;20.336;2024-01-15T04:47:14;-11.50;99.90
12384;DHT22;6256;63.808;20.336;2024-01-15T04:49:40;-11.50;99.90
12384;DHT22;6256;63.808;20.336;2024-01-15T04:52:05;-11.50;99.90
12384;DHT22;6256;63.808;20.336;2024-01-15T04:54:31;-11.60;99.90
12384;DHT22;6256;63.808;20.336;2024-01-15T04:56:57;-11.70;99.90
12384;DHT22;6256;63.808;20.336;2024-01-15T04:59:23;-11.70;99.90
12384;DHT22;6256;63.808;20.336;2024-01-15T05:01:48;-11.80;99.90
12384;DHT22;6256;63.808;20.336;2024-01-15T05:04:14;-11.80;99.90
12384;DHT22;6256;63.808;20.336;2024-01-15T05:06:40;-11.80;99.90
12384;DHT22;6256;63.808;20.336;2024-01-15T05:09:06;-11.90;99.90
12384;DHT22;6256;63.808;20.336;2024-01-15T05:11:32;-12.00;99.90
12384;DHT22;6256;63.808;20.336;2024-01-15T05:13:58;-12.10;99.90
12384;DHT22;6256;63.808;20.336;2024-01-15T05:16:23;-12.20;99.90
12384;DHT22;6256;63.808;20.336;2024-01-15T05:18:49;-12.30;99.90
12384;DHT22;6256;63.808;20.336;2024-01-15T05:21:15;-12.30;99.90
12384;DHT22;6256;63.808;20.336;2024-01-15T05:23:41;-12.20;99.90
12384;DHT22;6256;63.808;20.336;2024-01-15T05:26:06;-12.40;99.90
12384;DHT22;6256;63.808;20.336;2024-01-15T05:28:34;-12.40;99.90
12384;DHT22;6256;63.808;20.336;2024-01-15T05:31:00;-12.50;99.90
12384;DHT22;6256;63.808;20.336;2024-01-15T05:33:25;-12.50;99.90
12384;DHT22;6256;63.808;20.336;2024-01-15T05:35:51;-12.60;99.90
12384;DHT22;6256;63.808;20.336;2024-01-15T05:38:17;-12.70;99.90
12384;DHT22;6256;63.808;20.336;2024-01-15T05:40:43;-12.70;99.90
12384;DHT22;6256;63.808;20.336;2024-01-15T05:43:08;-12.80;99.90
12384;DHT22;6256;63.808;20.336;2024-01-15T05:45:35;-12.80;99.90
12384;DHT22;6256;63.808;20.336;2024-01-15T05:48:01;-12.80;99.90
12384;DHT22;6256;63.808;20.336;2024-01-15T05:50:26;-12.80;99.90
12384;DHT22;6256;63.808;20.336;2024-01-15T05:52:52;-12.80;99.90
12384;DHT22;6256;63.808;20.336;2024-01-15T05:55:18;-12.80;99.90
12384;DHT22;6256;63.808;20.336;2024-01-15T05:57:44;-12.80;99.90
12384;DHT22;6256;63.808;20.336;2024-01-15T06:00:11;-12.80;99.90
12384;DHT22;6256;63.808;20.336;2024-01-15T06:02:40;-12.90;99.90
12384;DHT22;6256;63.808;20.336;2024-01-15T06:05:08;-12.90;99.90
12384;DHT22;6256;63.808;20.336;2024-01-15T06:07:34;-13.00;99.90
12384;DHT22;6256;63.808;20.336;2024-01-15T06:10:01;-13.00;99.90
12384;DHT22;6256;63.808;20.336;2024-01-15T06:12:28;-13.00;99.90
12384;DHT22;6256;63.808;20.336;2024-01-15T06:14:53;-13.10;99.90
12384;DHT22;6256;63.808;20.336;2024-01-15T06:17:19;-13.20;99.90
12384;DHT22;6256;63.808;20.336;2024-01-15T06:19:45;-13.30;99.90
12384;DHT22;6256;63.808;20.336;2024-01-15T06:22:10;-13.30;99.90
12384;DHT22;6256;63.808;20.336;2024-01-15T06:24:36;-13.30;99.90
12384;DHT22;6256;63.808;20.336;2024-01-15T06:27:02;-13.40;99.90
12384;DHT22;6256;63.808;20.336;2024-01-15T06:29:28;-13.40;99.90
12384;DHT22;6256;63.808;20.336;2024-01-15T06:31:53;-13.40;99.90
12384;DHT22;6256;63.808;20.336;2024-01-15T06:34:19;-13.50;99.90
12384;DHT22;6256;63.808;20.336;2024-01-15T06:36:45;-13.50;99.90
12384;DHT22;6256;63.808;20.336;2024-01-15T06:39:10;-13.50;99.90
12384;DHT22;6256;63.808;20.336;2024-01-15T06:41:36;-13.50;99.90
12384;DHT22;6256;63.808;20.336;2024-01-15T06:44:09;-13.60;99.90
12384;DHT22;6256;63.808;20.336;2024-01-15T06:46:36;-13.50;99.90
12384;DHT22;6256;63.808;20.336;2024-01-15T06:49:02;-13.60;99.90
12384;DHT22;6256;63.808;20.336;2024-01-15T06:51:29;-13.60;99.90
12384;DHT22;6256;63.808;20.336;2024-01-15T06:53:54;-13.60;99.90
12384;DHT22;6256;63.808;20.336;2024-01-15T06:56:20;-13.60;99.90
12384;DHT22;6256;63.808;20.336;2024-01-15T06:58:46;-13.60;99.90
12384;DHT22;6256;63.808;20.336;2024-01-15T07:01:11;-13.60;99.90
12384;DHT22;6256;63.808;20.336;2024-01-15T07:03:40;-13.70;99.90
12384;DHT22;6256;63.808;20.336;2024-01-15T07:06:06;-13.80;99.90
12384;DHT22;6256;63.808;20.336;2024-01-15T07:08:31;-13.90;99.90
12384;DHT22;6256;63.808;20.336;2024-01-15T07:10:57;-14.00;99.90
12384;DHT22;6256;63.808;20.336;2024-01-15T07:13:23;-14.10;99.90
12384;DHT22;6256;63.808;20.336;2024-01-15T07:15:48;-14.10;99.90
12384;DHT22;6256;63.808;20.336;2024-01-15T07:18:14;-14.20;99.90
12384;DHT22;6256;63.808;20.336;2024-01-15T07:20:41;-14.20;99.90
12384;DHT22;6256;63.808;20.336;2024-01-15T07:23:06;-14.20;99.90
12384;DHT22;6256;63.808;20.336;2024-01-15T07:25:32;-14.30;99.90
12384;DHT22;6256;63.808;20.336;2024-01-15T07:27:58;-14.30;99.90
12384;DHT22;6256;63.808;20.336;2024-01-15T07:30:24;-14.30;99.90
12384;DHT22;6256;63.808;20.336;2024-01-15T07:32:49;-14.30;99.90
12384;DHT22;6256;63.808;20.336;2024-01-15T07:35:15;-14.30;99.90
12384;DHT22;6256;63.808;20.336;2024-01-15T07:37:41;-14.40;99.90
12384;DHT22;6256;63.808;20.336;2024-01-15T07:40:07;-14.50;99.90
12384;DHT22;6256;63.808;20.336;2024-01-15T07:42:37;-14.50;99.90
12384;DHT22;6256;63.808;20.336;2024-01-15T07:45:04;-14.50;99.90
12384;DHT22;6256;63.808;20.336;2024-01-15T07:47:30;-14.50;99.90
12384;DHT22;6256;63.808;20.336;2024-01-15T07:49:55;-14.40;99.90
12384;DHT22;6256;63.808;20.336;2024-01-15T07:52:21;-14.40;99.90
12384;DHT22;6256;63.808;20.336;2024-01-15T07:54:47;-14.50;99.90
12384;DHT22;6256;63.808;20.336;2024-01-15T07:57:13;-14.50;99.90
12384;DHT22;6256;63.808;20.336;2024-01-15T07:59:39;-14.50;99.90
12384;DHT22;6256;63.808;20.336;2024-01-15T08:02:05;-14.50;99.90
12384;DHT22;6256;63.808;20.336;2024-01-15T08:04:31;-14.60;99.90
12384;DHT22;6256;63.808;20.336;2024-01-15T08:06:57;-14.50;99.90
12384;DHT22;6256;63.808;20.336;2024-01-15T08:09:23;-14.40;99.90
12384;DHT22;6256;63.808;20.336;2024-01-15T08:11:49;-14.30;99.90
12384;DHT22;6256;63.808;20.336;2024-01-15T08:14:15;-14.30;99.90
12384;DHT22;6256;63.808;20.336;2024-01-15T08:16:40;-14.20;99.90
12384;DHT22;6256;63.808;20.336;2024-01-15T08:19:06;-14.00;99.90
12384;DHT22;6256;63.808;20.336;2024-01-15T08:21:32;-13.90;99.90
12384;DHT22;6256;63.808;20.336;2024-01-15T08:24:02;-13.80;99.90
12384;DHT22;6256;63.808;20.336;2024-01-15T08:26:28;-13.70;99.90
12384;DHT22;6256;63.808;20.336;2024-01-15T08:28:54;-13.70;99.90
12384;DHT22;6256;63.808;20.336;2024-01-15T08:31:23;-13.50;99.90
12384;DHT22;6256;63.808;20.336;2024-01-15T08:33:49;-13.50;99.90
12384;DHT22;6256;63.808;20.336;2024-01-15T08:36:15;-13.40;99.90
12384;DHT22;6256;63.808;20.336;2024-01-15T08:38:40;-13.30;99.90
12384;DHT22;6256;63.808;20.336;2024-01-15T08:41:06;-13.20;99.90
12384;DHT22;6256;63.808;20.336;2024-01-15T08:43:34;-13.10;99.90
12384;DHT22;6256;63.808;20.336;2024-01-15T08:45:59;-13.10;99.90
12384;DHT22;6256;63.808;20.336;2024-01-15T08:48:26;-13.00;99.90
12384;DHT22;6256;63.808;20.336;2024-01-15T08:50:53;-13.10;99.90
12384;DHT22;6256;63.808;20.336;2024-01-15T08:53:20;-13.10;99.90
12384;DHT22;6256;63.808;20.336;2024-01-15T08:55:45;-13.00;99.90
12384;DHT22;6256;63.808;20.336;2024-01-15T08:58:11;-13.10;99.90
12384;DHT22;6256;63.808;20.336;2024-01-15T09:00:37;-13.00;99.90
12384;DHT22;6256;63.808;20.336;2024-01-15T09:03:03;-13.00;99.90
12384;DHT22;6256;63.808;20.336;2024-01-15T09:05:29;-12.80;99.90
12384;DHT22;6256;63.808;20.336;2024-01-15T09:07:54;-12.70;99.90
12384;DHT22;6256;63.808;20.336;2024-01-15T09:10:20;-12.80;99.90
12384;DHT22;6256;63.808;20.336;2024-01-15T09:12:46;-12.70;99.90
12384;DHT22;6256;63.808;20.336;2024-01-15T09:15:12;-12.70;99.90
12384;DHT22;6256;63.808;20.336;2024-01-15T09:17:38;-12.70;99.90
12384;DHT22;6256;63.808;20.336;2024-01-15T09:20:04;-12.80;99.90
12384;DHT22;6256;63.808;20.336;2024-01-15T09:22:31;-12.90;99.90
12384;DHT22;6256;63.808;20.336;2024-01-15T09:24:58;-13.10;99.90
12384;DHT22;6256;63.808;20.336;2024-01-15T09:27:24;-13.20;99.90
12384;DHT22;6256;63.808;20.336;2024-01-15T09:29:53;-13.20;99.90
12384;DHT22;6256;63.808;20.336;2024-01-15T09:32:18;-13.20;99.90
12384;DHT22;6256;63.808;20.336;2024-01-15T09:34:45;-13.10;99.90
12384;DHT22;6256;63.808;20.336;2024-01-15T09:37:12;-13.00;99.90
12384;DHT22;6256;63.808;20.336;2024-01-15T09:39:41;-12.90;99.90
12384;DHT22;6256;63.808;20.336;2024-01-15T09:42:10;-12.80;99.90
12384;DHT22;6256;63.808;20.336;2024-01-15T09:44:36;-12.80;99.90
12384;DHT22;6256;63.808;20.336;2024-01-15T09:47:04;-12.90;99.90
12384;DHT22;6256;63.808;20.336;2024-01-15T09:49:30;-13.00;99.90
12384;DHT22;6256;63.808;20.336;2024-01-15T09:51:57;-13.10;99.90
12384;DHT22;6256;63.808;20.336;2024-01-15T09:54:23;-13.20;99.90
12384;DHT22;6256;63.808;20.336;2024-01-15T09:56:49;-13.30;99.90
12384;DHT22;6256;63.808;20.336;2024-01-15T09:59:16;-13.20;99.90
12384;DHT22;6256;63.808;20.336;2024-01-15T10:01:44;-13.20;99.90
12384;DHT22;6256;63.808;20.336;2024-01-15T10:04:13;-13.10;99.90
12384;DHT22;6256;63.808;20.336;2024-01-15T10:06:39;-13.20;99.90
12384;DHT22;6256;63.808;20.336;2024-01-15T10:09:07;-13.20;99.90
12384;DHT22;6256;63.808;20.336;2024-01-15T10:11:33;-13.10;99.90
12384;DHT22;6256;63.808;20.336;2024-01-15T10:13:59;-13.10;99.90
12384;DHT22;6256;63.808;20.336;2024-01-15T10:16:25;-13.00;99.90
12384;DHT22;6256;63.808;20.336;2024-01-15T10:18:51;-12.90;99.90
12384;DHT22;6256;63.808;20.336;2024-01-15T10:21:17;-12.90;99.90
12384;DHT22;6256;63.808;20.336;2024-01-15T10:23:43;-13.00;99.90
12384;DHT22;6256;63.808;20.336;2024-01-15T10:26:09;-13.10;99.90
12384;DHT22;6256;63.808;20.336;2024-01-15T10:28:37;-13.10;99.90
12384;DHT22;6256;63.808;20.336;2024-01-15T10:31:03;-13.10;99.90
12384;DHT22;6256;63.808;20.336;2024-01-15T10:33:30;-13.30;99.90
12384;DHT22;6256;63.808;20.336;2024-01-15T10:35:57;-13.30;99.90
12384;DHT22;6256;63.808;20.336;2024-01-15T10:38:23;-13.30;99.90
12384;DHT22;6256;63.808;20.336;2024-01-15T10:40:54;-13.30;99.90
12384;DHT22;6256;63.808;20.336;2024-01-15T10:43:20;-13.40;99.90
12384;DHT22;6256;63.808;20.336;2024-01-15T10:45:47;-13.40;99.90
12384;DHT22;6256;63.808;20.336;2024-01-15T10:48:13;-13.40;99.90
12384;DHT22;6256;63.808;20.336;2024-01-15T10:50:39;-13.40;99.90
12384;DHT22;6256;63.808;20.336;2024-01-15T10:53:05;-13.50;99.90
12384;DHT22;6256;63.808;20.336;2024-01-15T10:55:32;-13.50;99.90
12384;DHT22;6256;63.808;20.336;2024-01-15T10:57:59;-13.50;99.90
12384;DHT22;6256;63.808;20.336;2024-01-15T11:00:26;-13.50;99.90
12384;DHT22;6256;63.808;20.336;2024-01-15T11:02:53;-13.40;99.90
12384;DHT22;6256;63.808;20.336;2024-01-15T11:05:22;-13.40;99.90
12384;DHT22;6256;63.808;20.336;2024-01-15T11:07:54;-13.30;99.90
12384;DHT22;6256;63.808;20.336;2024-01-15T11:13:22;-13.40;99.90
12384;DHT22;6256;63.808;20.336;2024-01-15T11:16:09;-13.20;99.90
12384;DHT22;6256;63.808;20.336;2024-01-15T11:18:39;-13.10;99.90
12384;DHT22;6256;63.808;20.336;2024-01-15T11:23:47;-12.90;99.90
12384;DHT22;6256;63.808;20.336;2024-01-15T11:26:33;-13.00;99.90
12384;DHT22;6256;63.808;20.336;2024-01-15T11:29:01;-13.10;99.90
12384;DHT22;6256;63.808;20.336;2024-01-15T11:31:30;-13.20;99.90
12384;DHT22;6256;63.808;20.336;2024-01-15T11:34:15;-13.30;99.90
12384;DHT22;6256;63.808;20.336;2024-01-15T11:41:59;-13.50;99.90
12384;DHT22;6256;63.808;20.336;2024-01-15T11:44:25;-13.50;99.90
12384;DHT22;6256;63.808;20.336;2024-01-15T11:47:05;-13.40;99.90
12384;DHT22;6256;63.808;20.336;2024-01-15T11:52:11;-13.50;99.90
12384;DHT22;6256;63.808;20.336;2024-01-15T11:54:42;-13.50;99.90
12384;DHT22;6256;63.808;20.336;2024-01-15T11:57:12;-13.60;99.90
12384;DHT22;6256;63.808;20.336;2024-01-15T11:59:42;-13.60;99.90
12384;DHT22;6256;63.808;20.336;2024-01-15T12:02:09;-13.70;99.90
12384;DHT22;6256;63.808;20.336;2024-01-15T12:04:37;-13.70;99.90
12384;DHT22;6256;63.808;20.336;2024-01-15T12:07:04;-13.70;99.90
12384;DHT22;6256;63.808;20.336;2024-01-15T12:09:30;-13.80;99.90
12384;DHT22;6256;63.808;20.336;2024-01-15T12:12:02;-13.80;99.90
12384;DHT22;6256;63.808;20.336;2024-01-15T12:14:31;-13.80;99.90
12384;DHT22;6256;63.808;20.336;2024-01-15T12:16:57;-13.90;99.90
12384;DHT22;6256;63.808;20.336;2024-01-15T12:19:23;-13.90;99.90
12384;DHT22;6256;63.808;20.336;2024-01-15T12:21:51;-13.90;99.90
12384;DHT22;6256;63.808;20.336;2024-01-15T12:24:17;-13.90;99.90
12384;DHT22;6256;63.808;20.336;2024-01-15T12:26:44;-13.90;99.90
12384;DHT22;6256;63.808;20.336;2024-01-15T12:29:11;-13.80;99.90
12384;DHT22;6256;63.808;20.336;2024-01-15T12:31:37;-13.90;99.90
12384;DHT22;6256;63.808;20.336;2024-01-15T12:34:03;-13.90;99.90
12384;DHT22;6256;63.808;20.336;2024-01-15T12:36:31;-14.00;99.90
12384;DHT22;6256;63.808;20.336;2024-01-15T12:39:00;-14.00;99.90
12384;DHT22;6256;63.808;20.336;2024-01-15T12:41:26;-14.10;99.90
12384;DHT22;6256;63.808;20.336;2024-01-15T12:43:52;-14.10;99.90
12384;DHT22;6256;63.808;20.336;2024-01-15T12:46:17;-14.10;99.90
12384;DHT22;6256;63.808;20.336;2024-01-15T12:48:44;-14.20;99.90
12384;DHT22;6256;63.808;20.336;2024-01-15T12:51:10;-14.20;99.90
12384;DHT22;6256;63.808;20.336;2024-01-15T12:53:36;-14.20;99.90
12384;DHT22;6256;63.808;20.336;2024-01-15T12:56:01;-14.20;99.90
12384;DHT22;6256;63.808;20.336;2024-01-15T12:58:28;-14.20;99.90
12384;DHT22;6256;63.808;20.336;2024-01-15T13:00:53;-14.20;99.90
12384;DHT22;6256;63.808;20.336;2024-01-15T13:03:19;-14.20;99.90
12384;DHT22;6256;63.808;20.336;2024-01-15T13:05:45;-14.20;99.90
12384;DHT22;6256;63.808;20.336;2024-01-15T13:08:11;-14.20;99.90
12384;DHT22;6256;63.808;20.336;2024-01-15T13:10:36;-14.20;99.90
12384;DHT22;6256;63.808;20.336;2024-01-15T13:13:02;-14.30;99.90
12384;DHT22;6256;63.808;20.336;2024-01-15T13:15:28;-14.30;99.90
12384;DHT22;6256;63.808;20.336;2024-01-15T13:17:54;-14.30;99.90
12384;DHT22;6256;63.808;20.336;2024-01-15T13:20:19;-14.20;99.90
12384;DHT22;6256;63.808;20.336;2024-01-15T13:22:45;-14.20;99.90
12384;DHT22;6256;63.808;20.336;2024-01-15T13:25:11;-14.30;99.90
12384;DHT22;6256;63.808;20.336;2024-01-15T13:27:40;-14.20;99.90
12384;DHT22;6256;63.808;20.336;2024-01-15T13:30:06;-14.20;99.90
12384;DHT22;6256;63.808;20.336;2024-01-15T13:32:33;-14.30;99.90
12384;DHT22;6256;63.808;20.336;2024-01-15T13:34:59;-14.40;99.90
12384;DHT22;6256;63.808;20.336;2024-01-15T13:37:25;-14.30;99.90
12384;DHT22;6256;63.808;20.336;2024-01-15T13:39:51;-14.30;99.90
12384;DHT22;6256;63.808;20.336;2024-01-15T13:42:18;-14.40;99.90
12384;DHT22;6256;63.808;20.336;2024-01-15T13:44:43;-14.40;99.90
12384;DHT22;6256;63.808;20.336;2024-01-15T13:47:09;-14.40;99.90
12384;DHT22;6256;63.808;20.336;2024-01-15T13:49:35;-14.50;99.90
12384;DHT22;6256;63.808;20.336;2024-01-15T13:52:02;-14.50;99.90
12384;DHT22;6256;63.808;20.336;2024-01-15T13:54:29;-14.60;99.90
12384;DHT22;6256;63.808;20.336;2024-01-15T13:56:55;-14.70;99.90
12384;DHT22;6256;63.808;20.336;2024-01-15T13:59:21;-14.70;99.90
12384;DHT22;6256;63.808;20.336;2024-01-15T14:01:47;-14.70;99.90
12384;DHT22;6256;63.808;20.336;2024-01-15T14:04:13;-14.80;99.90
12384;DHT22;6256;63.808;20.336;2024-01-15T14:06:39;-14.70;99.90
12384;DHT22;6256;63.808;20.336;2024-01-15T14:09:05;-14.80;99.90
12384;DHT22;6256;63.808;20.336;2024-01-15T14:11:31;-14.80;99.90
12384;DHT22;6256;63.808;20.336;2024-01-15T14:13:56;-14.80;99.90
12384;DHT22;6256;63.808;20.336;2024-01-15T14:16:22;-14.70;99.90
12384;DHT22;6256;63.808;20.336;2024-01-15T14:18:48;-14.80;99.90
12384;DHT22;6256;63.808;20.336;2024-01-15T14:21:14;-14.80;99.90
12384;DHT22;6256;63.808;20.336;2024-01-15T14:23:40;-14.80;99.90
12384;DHT22;6256;63.808;20.336;2024-01-15T14:26:06;-14.90;99.90
12384;DHT22;6256;63.808;20.336;2024-01-15T14:28:31;-14.90;99.90
12384;DHT22;6256;63.808;20.336;2024-01-15T14:30:57;-14.90;99.90
12384;DHT22;6256;63.808;20.336;2024-01-15T14:33:26;-14.90;99.90
12384;DHT22;6256;63.808;20.336;2024-01-15T14:35:52;-14.90;99.90
12384;DHT22;6256;63.808;20.336;2024-01-15T14:38:18;-14.90;99.90
12384;DHT22;6256;63.808;20.336;2024-01-15T14:40:43;-14.90;99.90
12384;DHT22;6256;63.808;20.336;2024-01-15T14:43:10;-14.80;99.90
12384;DHT22;6256;63.808;20.336;2024-01-15T14:45:36;-14.80;99.90
12384;DHT22;6256;63.808;20.336;2024-01-15T14:48:02;-14.80;99.90
12384;DHT22;6256;63.808;20.336;2024-01-15T14:50:28;-14.80;99.90
12384;DHT22;6256;63.808;20.336;2024-01-15T14:52:54;-14.80;99.90
12384;DHT22;6256;63.808;20.336;2024-01-15T14:55:19;-14.80;99.90
12384;DHT22;6256;63.808;20.336;2024-01-15T14:57:45;-14.90;99.90
12384;DHT22;6256;63.808;20.336;2024-01-15T15:00:11;-14.90;99.90
12384;DHT22;6256;63.808;20.336;2024-01-15T15:02:39;-14.90;99.90
12384;DHT22;6256;63.808;20.336;2024-01-15T15:05:05;-15.00;99.90
12384;DHT22;6256;63.808;20.336;2024-01-15T15:07:31;-15.00;99.90
12384;DHT22;6256;63.808;20.336;2024-01-15T15:09:56;-15.10;99.90
12384;DHT22;6256;63.808;20.336;2024-01-15T15:12:22;-15.10;99.90
12384;DHT22;6256;63.808;20.336;2024-01-15T15:14:48;-15.00;99.90
12384;DHT22;6256;63.808;20.336;2024-01-15T15:17:13;-15.10;99.90
12384;DHT22;6256;63.808;20.336;2024-01-15T15:19:39;-15.10;99.90
12384;DHT22;6256;63.808;20.336;2024-01-15T15:22:06;-15.20;99.90
12384;DHT22;6256;63.808;20.336;2024-01-15T15:24:36;-15.20;99.90